Time;durP1;ratioP1;P1;durP2;ratioP2;P2;SDS_P1;SDS_P2;PMS_P1;PMS_P2;Temp;Humidity;BMP_temperature;BMP_pressure;BME280_temperature;BME280_humidity;BME280_pressure;Samples;Min_cycle;Max_cycle;Signal;HPM_P1;HPM_P2
2021/08/12 00:01:13;;;;;;;14.32;8.68;;;;;;;12.03;100.00;101968.75;5226313;28;20025;-80
2021/08/12 00:03:45;;;;;;;11.65;7.18;;;;;;;12.05;100.00;101959.56;5226263;28;20053;-81
2021/08/12 00:06:16;;;;;;;18.52;9.45;;;;;;;12.10;100.00;101968.03;5226260;28;20039;-80
2021/08/12 00:08:46;;;;;;;18.80;8.93;;;;;;;12.13;100.00;101967.72;5209489;28;20025;-81
2021/08/12 00:11:17;;;;;;;13.63;7.72;;;;;;;12.15;100.00;101963.06;5226223;28;20028;-81
2021/08/12 00:13:47;;;;;;;11.57;7.35;;;;;;;12.18;100.00;101970.81;5226758;28;20022;-81
2021/08/12 00:16:17;;;;;;;13.95;7.80;;;;;;;12.28;100.00;101960.00;5226082;28;20056;-81
2021/08/12 00:18:55;;;;;;;15.05;8.85;;;;;;;12.43;100.00;101957.63;5226747;28;20033;-81
2021/08/12 00:21:25;;;;;;;14.95;8.48;;;;;;;12.50;100.00;101956.06;5226484;28;20160;-80
2021/08/12 00:23:57;;;;;;;17.67;9.55;;;;;;;12.52;100.00;101956.75;5226945;28;20025;-81
2021/08/12 00:26:27;;;;;;;12.77;7.10;;;;;;;12.48;100.00;101958.03;5226480;28;20482;-79
2021/08/12 00:28:58;;;;;;;15.75;7.95;;;;;;;12.48;100.00;101959.88;5226324;28;20033;-80
2021/08/12 00:31:28;;;;;;;14.13;8.55;;;;;;;12.47;100.00;101948.28;5208135;28;20111;-79
2021/08/12 00:33:59;;;;;;;16.17;8.55;;;;;;;12.50;100.00;101958.75;5227120;28;20082;-81
2021/08/12 00:36:30;;;;;;;18.45;9.15;;;;;;;12.53;100.00;101953.03;5230064;28;20071;-82
2021/08/12 00:39:00;;;;;;;25.70;9.63;;;;;;;12.55;100.00;101960.97;5229251;28;20028;-80
2021/08/12 00:41:35;;;;;;;18.50;9.18;;;;;;;12.56;100.00;101958.13;5229447;28;20025;-81
2021/08/12 00:44:07;;;;;;;18.67;10.40;;;;;;;12.60;100.00;101954.16;5216566;28;20652;-81
2021/08/12 00:46:37;;;;;;;20.60;10.73;;;;;;;12.63;100.00;101953.81;5229904;28;20104;-80
2021/08/12 00:49:07;;;;;;;21.33;9.77;;;;;;;12.65;100.00;101954.53;5230276;28;20040;-80
2021/08/12 00:51:40;;;;;;;18.45;9.23;;;;;;;12.67;100.00;101960.59;5229601;28;20033;-80
2021/08/12 00:54:11;;;;;;;18.58;9.57;;;;;;;12.70;100.00;101956.72;5229579;28;20025;-81
2021/08/12 00:56:43;;;;;;;16.38;9.05;;;;;;;12.77;100.00;101954.28;5229584;28;20051;-80
2021/08/12 00:59:14;;;;;;;15.90;8.90;;;;;;;12.80;100.00;101948.59;5229559;28;20119;-81
2021/08/12 01:01:44;;;;;;;19.42;10.88;;;;;;;12.80;100.00;101941.38;5230147;28;20099;-81
2021/08/12 01:04:15;;;;;;;17.52;9.00;;;;;;;12.80;100.00;101943.19;5230214;28;20017;-79
2021/08/12 01:06:56;;;;;;;20.98;9.80;;;;;;;12.82;100.00;101946.59;5230066;28;20040;-80
2021/08/12 01:09:37;;;;;;;20.48;10.02;;;;;;;12.81;100.00;101937.69;5230223;28;20025;-81
2021/08/12 01:12:17;;;;;;;24.23;11.85;;;;;;;12.86;100.00;101946.16;5230025;28;20047;-81
2021/08/12 01:14:57;;;;;;;15.95;9.68;;;;;;;12.84;100.00;101950.81;5230998;28;20107;-81
2021/08/12 01:17:35;;;;;;;20.63;9.38;;;;;;;12.83;100.00;101938.34;5230007;28;20029;-81
2021/08/12 01:20:06;;;;;;;20.52;9.88;;;;;;;12.81;100.00;101936.84;5229989;28;20031;-81
2021/08/12 01:22:42;;;;;;;23.60;10.75;;;;;;;12.79;100.00;101942.34;5229584;28;20021;-81
2021/08/12 01:25:20;;;;;;;20.23;10.40;;;;;;;12.76;100.00;101944.53;5229915;28;20036;-80
2021/08/12 01:27:53;;;;;;;19.75;9.52;;;;;;;12.72;100.00;101951.22;5230025;28;20056;-81
2021/08/12 01:30:26;;;;;;;19.15;9.63;;;;;;;12.67;100.00;101947.13;5221495;28;20021;-80
2021/08/12 01:33:17;;;;;;;19.55;11.00;;;;;;;12.63;100.00;101944.91;5229897;28;20072;-81
2021/08/12 01:35:49;;;;;;;16.25;9.20;;;;;;;12.57;100.00;101943.66;5229625;28;20032;-81
2021/08/12 01:38:24;;;;;;;17.65;9.15;;;;;;;12.54;100.00;101943.13;5229727;28;20037;-82
2021/08/12 01:40:57;;;;;;;17.00;10.18;;;;;;;12.50;100.00;101947.09;5216614;28;20044;-81
2021/08/12 01:43:31;;;;;;;15.43;9.25;;;;;;;12.50;100.00;101941.72;5223551;28;20021;-80
2021/08/12 01:46:23;;;;;;;19.67;9.68;;;;;;;12.41;100.00;101947.03;5221248;28;20430;-81
2021/08/12 01:48:57;;;;;;;19.95;11.13;;;;;;;12.37;100.00;101936.72;5222659;28;20343;-80
2021/08/12 01:51:29;;;;;;;23.20;10.70;;;;;;;12.33;100.00;101929.94;5221981;28;20021;-80
2021/08/12 01:54:01;;;;;;;23.80;10.32;;;;;;;12.30;100.00;101941.00;5222050;28;20021;-80
2021/08/12 01:56:32;;;;;;;20.25;11.07;;;;;;;12.27;100.00;101938.63;5221756;28;20048;-81
2021/08/12 01:59:03;;;;;;;19.60;10.20;;;;;;;12.23;100.00;101931.84;5221313;28;20036;-81
2021/08/12 02:01:35;;;;;;;20.17;10.32;;;;;;;12.21;100.00;101933.84;5221565;28;20028;-81
2021/08/12 02:04:07;;;;;;;22.63;10.98;;;;;;;12.16;100.00;101921.69;5221417;28;20097;-81
2021/08/12 02:06:37;;;;;;;19.23;10.30;;;;;;;12.19;100.00;101918.69;5223645;28;20394;-80
2021/08/12 02:09:08;;;;;;;23.52;11.75;;;;;;;12.13;100.00;101930.06;5225598;28;20033;-80
2021/08/12 02:11:39;;;;;;;20.48;10.15;;;;;;;12.09;100.00;101941.25;5222686;28;20028;-81
2021/08/12 02:14:09;;;;;;;17.42;9.88;;;;;;;11.99;100.00;101937.78;5221659;28;20474;-81
2021/08/12 02:16:40;;;;;;;23.42;10.32;;;;;;;11.95;100.00;101939.94;5221512;28;20224;-81
2021/08/12 02:19:10;;;;;;;22.70;11.07;;;;;;;11.91;100.00;101936.69;5221497;28;20486;-80
2021/08/12 02:21:44;;;;;;;22.23;11.82;;;;;;;11.88;100.00;101926.22;5221006;28;20032;-81
2021/08/12 02:24:27;;;;;;;31.20;11.52;;;;;;;11.85;100.00;101931.91;5221211;28;20109;-81
2021/08/12 02:27:01;;;;;;;19.35;10.50;;;;;;;11.80;100.00;101920.72;5221348;28;20452;-80
2021/08/12 02:29:33;;;;;;;31.10;13.73;;;;;;;11.82;100.00;101912.53;5220077;28;20028;-81
2021/08/12 02:32:08;;;;;;;22.05;11.55;;;;;;;11.83;100.00;101907.00;5214334;28;20024;-81
2021/08/12 02:34:40;;;;;;;25.20;12.00;;;;;;;11.83;100.00;101904.31;5221206;28;20108;-81
2021/08/12 02:37:14;;;;;;;20.75;10.90;;;;;;;11.78;100.00;101903.88;5221254;28;20478;-80
2021/08/12 02:39:47;;;;;;;24.03;12.37;;;;;;;11.74;100.00;101907.84;5221167;28;20087;-81
2021/08/12 02:42:18;;;;;;;19.40;10.48;;;;;;;11.72;100.00;101907.16;5220763;28;20561;-81
2021/08/12 02:44:52;;;;;;;21.75;11.48;;;;;;;11.68;100.00;101900.38;5221251;28;20098;-81
2021/08/12 02:47:24;;;;;;;18.42;9.95;;;;;;;11.69;100.00;101904.75;5220876;28;20043;-80
2021/08/12 02:49:56;;;;;;;17.20;9.45;;;;;;;11.72;100.00;101900.94;5220850;28;20025;-81
2021/08/12 02:52:26;;;;;;;20.15;10.48;;;;;;;11.70;100.00;101897.53;5220610;28;20020;-81
2021/08/12 02:54:57;;;;;;;16.45;9.68;;;;;;;11.65;100.00;101896.16;5202883;28;20557;-80
2021/08/12 02:57:29;;;;;;;22.00;10.60;;;;;;;11.63;100.00;101898.13;5221160;28;20024;-81
2021/08/12 03:00:00;;;;;;;23.80;11.27;;;;;;;11.65;100.00;101904.22;5221054;28;20459;-79
2021/08/12 03:02:32;;;;;;;18.75;10.13;;;;;;;11.68;100.00;101898.53;5220631;28;20402;-81
2021/08/12 03:05:03;;;;;;;22.88;11.63;;;;;;;11.74;100.00;101902.47;5220900;28;20055;-81
2021/08/12 03:07:35;;;;;;;19.55;10.63;;;;;;;11.82;100.00;101896.41;5220715;28;20036;-81
2021/08/12 03:10:06;;;;;;;26.10;12.23;;;;;;;11.91;100.00;101892.81;5203780;28;20027;-81
2021/08/12 03:12:37;;;;;;;23.70;12.23;;;;;;;11.96;100.00;101877.09;5221253;28;20486;-81
2021/08/12 03:15:09;;;;;;;24.17;12.63;;;;;;;12.01;100.00;101890.94;5221145;28;20483;-81
2021/08/12 03:17:41;;;;;;;21.10;10.63;;;;;;;12.04;100.00;101897.84;5220516;28;20078;-81
2021/08/12 03:20:12;;;;;;;19.20;10.55;;;;;;;12.05;100.00;101896.84;5220576;28;20025;-81
2021/08/12 03:22:42;;;;;;;19.25;11.20;;;;;;;12.09;100.00;101898.22;5220690;28;20306;-80
2021/08/12 03:25:13;;;;;;;24.40;11.85;;;;;;;12.12;100.00;101895.25;5221092;28;20048;-81
2021/08/12 03:27:44;;;;;;;18.92;11.13;;;;;;;12.14;100.00;101899.47;5220826;28;20548;-81
2021/08/12 03:30:15;;;;;;;18.67;10.57;;;;;;;12.15;100.00;101894.97;5220436;28;20116;-81
2021/08/12 03:32:46;;;;;;;22.45;11.82;;;;;;;12.16;100.00;101902.88;5207208;28;20052;-81
2021/08/12 03:35:16;;;;;;;19.35;10.90;;;;;;;12.20;100.00;101903.41;5220785;28;20116;-81
2021/08/12 03:37:47;;;;;;;21.98;10.93;;;;;;;12.21;100.00;101901.56;5221025;28;20108;-81
2021/08/12 03:40:17;;;;;;;21.48;11.38;;;;;;;12.22;100.00;101900.56;5220606;28;20123;-81
2021/08/12 03:42:48;;;;;;;28.42;11.27;;;;;;;12.19;100.00;101907.09;5220614;28;20021;-80
2021/08/12 03:45:18;;;;;;;22.30;11.93;;;;;;;12.19;100.00;101907.09;5220884;28;20428;-81
2021/08/12 03:47:49;;;;;;;24.15;12.50;;;;;;;12.18;100.00;101911.63;5220760;28;20044;-81
2021/08/12 03:50:19;;;;;;;24.42;12.13;;;;;;;12.19;100.00;101915.16;5220981;28;20025;-81
2021/08/12 03:52:50;;;;;;;20.40;10.57;;;;;;;12.16;100.00;101907.41;5225790;28;20365;-82
2021/08/12 03:55:20;;;;;;;20.65;10.95;;;;;;;12.11;100.00;101915.94;5225323;28;20033;-81
2021/08/12 03:57:51;;;;;;;20.60;11.02;;;;;;;12.05;100.00;101916.53;5225879;28;20107;-80
2021/08/12 04:00:22;;;;;;;23.00;10.98;;;;;;;12.01;100.00;101923.19;5224783;28;20043;-81
2021/08/12 04:02:52;;;;;;;21.25;10.75;;;;;;;11.98;100.00;101915.41;5224917;28;20179;-81
2021/08/12 04:05:22;;;;;;;24.52;11.32;;;;;;;11.96;100.00;101917.41;5225443;28;20088;-80
2021/08/12 04:07:53;;;;;;;21.50;11.05;;;;;;;11.93;100.00;101915.88;5224960;28;20468;-80
2021/08/12 04:10:23;;;;;;;22.30;11.10;;;;;;;11.92;100.00;101922.25;5227451;28;20040;-80
2021/08/12 04:12:54;;;;;;;18.60;11.10;;;;;;;11.88;100.00;101925.38;5229557;28;20045;-81
2021/08/12 04:15:24;;;;;;;20.95;10.30;;;;;;;11.83;100.00;101923.13;5229058;28;20029;-81
2021/08/12 04:17:55;;;;;;;20.63;10.98;;;;;;;11.80;100.00;101915.34;5211564;28;20326;-80
2021/08/12 04:20:25;;;;;;;21.80;10.55;;;;;;;11.78;100.00;101922.69;5228319;28;20056;-81
2021/08/12 04:22:56;;;;;;;14.52;9.15;;;;;;;11.80;100.00;101923.41;5228941;28;20257;-82
2021/08/12 04:25:26;;;;;;;17.38;9.10;;;;;;;11.81;100.00;101926.94;5227941;28;20063;-81
2021/08/12 04:27:57;;;;;;;17.73;10.23;;;;;;;11.87;100.00;101918.31;5228855;28;20036;-80
2021/08/12 04:30:27;;;;;;;27.65;11.90;;;;;;;11.93;100.00;101925.78;5222304;28;20106;-81
2021/08/12 04:32:58;;;;;;;24.40;10.82;;;;;;;11.96;100.00;101925.50;5228464;28;20029;-81
2021/08/12 04:35:28;;;;;;;21.42;11.25;;;;;;;11.98;100.00;101934.25;5228971;28;20025;-81
2021/08/12 04:37:59;;;;;;;22.33;11.38;;;;;;;12.01;100.00;101935.81;5228466;28;20047;-81
2021/08/12 04:40:29;;;;;;;23.30;10.68;;;;;;;12.01;100.00;101942.03;5228303;28;20485;-80
2021/08/12 04:43:00;;;;;;;21.38;9.98;;;;;;;12.04;100.00;101932.78;5226858;28;20048;-81
2021/08/12 04:45:30;;;;;;;25.58;12.32;;;;;;;12.08;100.00;101937.72;5225952;28;20032;-80
2021/08/12 04:48:03;;;;;;;19.90;11.40;;;;;;;12.11;100.00;101937.44;5208358;28;20021;-82
2021/08/12 04:50:34;;;;;;;25.38;13.38;;;;;;;12.24;100.00;101942.44;5225466;28;20025;-81
2021/08/12 04:53:05;;;;;;;30.75;13.85;;;;;;;12.39;100.00;101945.47;5207711;28;20509;-81
2021/08/12 04:55:36;;;;;;;37.05;14.57;;;;;;;12.51;100.00;101946.13;5225082;28;20107;-82
2021/08/12 04:58:06;;;;;;;26.70;13.57;;;;;;;12.62;100.00;101948.59;5206815;28;20112;-81
2021/08/12 05:00:37;;;;;;;27.10;13.57;;;;;;;12.70;100.00;101949.53;5224348;28;20260;-81
2021/08/12 05:03:07;;;;;;;21.65;13.00;;;;;;;12.78;100.00;101946.06;5224203;28;20454;-80
2021/08/12 05:05:38;;;;;;;23.13;13.02;;;;;;;12.82;100.00;101952.00;5223647;28;20383;-81
2021/08/12 05:08:08;;;;;;;24.63;12.63;;;;;;;12.88;100.00;101949.50;5205962;28;20039;-81
2021/08/12 05:10:39;;;;;;;36.00;12.80;;;;;;;12.87;100.00;101950.53;5222902;28;20120;-82
2021/08/12 05:13:09;;;;;;;19.13;11.30;;;;;;;12.91;100.00;101951.91;5223255;28;20033;-81
2021/08/12 05:15:40;;;;;;;22.73;12.27;;;;;;;12.98;100.00;101951.28;5223387;28;20079;-81
2021/08/12 05:18:10;;;;;;;23.65;12.20;;;;;;;13.03;100.00;101957.91;5240381;28;20080;-83
2021/08/12 05:20:40;;;;;;;23.15;11.20;;;;;;;13.14;100.00;101952.25;5238731;28;20081;-83
2021/08/12 05:23:12;;;;;;;24.25;11.35;;;;;;;13.21;100.00;101963.28;5238743;28;20029;-82
2021/08/12 05:25:44;;;;;;;21.30;11.43;;;;;;;13.30;100.00;101951.56;5240273;28;20270;-83
2021/08/12 05:28:14;;;;;;;30.52;12.00;;;;;;;13.39;100.00;101950.63;5241068;28;20364;-83
2021/08/12 05:30:45;;;;;;;23.77;12.55;;;;;;;13.47;100.00;101956.09;5233387;28;20047;-82
2021/08/12 05:33:15;;;;;;;23.23;12.15;;;;;;;13.62;100.00;101959.03;5238739;28;20027;-82
2021/08/12 05:35:46;;;;;;;18.00;10.40;;;;;;;13.94;100.00;101961.06;5239310;28;20040;-84
2021/08/12 05:38:17;;;;;;;26.83;10.70;;;;;;;14.14;100.00;101950.03;5239794;28;20021;-84
2021/08/12 05:40:47;;;;;;;16.80;9.63;;;;;;;14.28;100.00;101954.81;5239449;28;20017;-83
2021/08/12 05:43:18;;;;;;;21.10;9.63;;;;;;;14.42;100.00;101946.06;5222365;28;20029;-84
2021/08/12 05:45:48;;;;;;;18.70;9.45;;;;;;;14.80;100.00;101951.06;5241704;28;20536;-84
2021/08/12 05:48:20;;;;;;;12.82;8.60;;;;;;;15.43;100.00;101944.97;5225198;28;20067;-82
2021/08/12 05:50:50;;;;;;;11.48;7.25;;;;;;;16.25;100.00;101938.28;5224334;28;20112;-82
2021/08/12 05:53:21;;;;;;;12.95;7.18;;;;;;;16.85;100.00;101941.34;5224333;28;20116;-84
2021/08/12 05:55:51;;;;;;;12.65;6.80;;;;;;;17.16;100.00;101946.69;5224335;28;20033;-86
2021/08/12 05:58:22;;;;;;;14.65;6.95;;;;;;;17.37;100.00;101940.53;5223249;28;20482;-83
2021/08/12 06:00:53;;;;;;;11.50;6.97;;;;;;;17.54;100.00;101942.09;5223794;28;20433;-87
2021/08/12 06:03:23;;;;;;;13.60;7.00;;;;;;;17.81;100.00;101932.47;5223698;28;20025;-82
2021/08/12 06:05:56;;;;;;;11.77;6.38;;;;;;;18.27;100.00;101932.22;5222582;28;20082;-81
2021/08/12 06:08:26;;;;;;;8.85;6.25;;;;;;;18.64;100.00;101933.91;5210692;28;20021;-82
2021/08/12 06:10:57;;;;;;;11.05;6.22;;;;;;;19.02;100.00;101933.66;5236049;28;20028;-84
2021/08/12 06:13:27;;;;;;;11.13;6.82;;;;;;;19.34;100.00;101941.28;5222795;28;20389;-80
2021/08/12 06:15:59;;;;;;;13.52;6.85;;;;;;;19.61;100.00;101936.88;5222616;28;20082;-81
2021/08/12 06:18:29;;;;;;;11.77;7.10;;;;;;;19.89;100.00;101933.28;5222906;28;20020;-82
2021/08/12 06:21:00;;;;;;;13.45;7.38;;;;;;;20.00;100.00;101938.16;5222535;28;20032;-81
2021/08/12 06:23:30;;;;;;;14.95;7.13;;;;;;;19.95;100.00;101942.53;5222546;28;20036;-81
2021/08/12 06:26:01;;;;;;;11.60;7.10;;;;;;;19.77;100.00;101953.94;5222516;28;20025;-84
2021/08/12 06:28:31;;;;;;;14.40;7.65;;;;;;;19.50;100.00;101948.28;5205282;28;20064;-81
2021/08/12 06:31:02;;;;;;;12.85;8.23;;;;;;;19.47;100.00;101948.69;5222453;28;20605;-81
2021/08/12 06:33:33;;;;;;;11.70;8.07;;;;;;;19.23;100.00;101947.25;5222333;28;20025;-82
2021/08/12 06:36:04;;;;;;;13.30;7.68;;;;;;;18.85;100.00;101944.81;5222118;28;20025;-83
2021/08/12 06:38:34;;;;;;;13.13;8.15;;;;;;;18.74;100.00;101950.78;5222449;28;20056;-82
2021/08/12 06:41:05;;;;;;;12.57;7.43;;;;;;;18.66;100.00;101947.31;5222655;28;20028;-82
2021/08/12 06:43:35;;;;;;;13.20;7.28;;;;;;;18.64;100.00;101942.91;5222971;28;20028;-82
2021/08/12 06:46:06;;;;;;;12.25;7.72;;;;;;;18.75;100.00;101952.47;5222353;28;20025;-82
2021/08/12 06:48:36;;;;;;;10.80;7.53;;;;;;;18.68;100.00;101947.97;5222069;28;20115;-82
2021/08/12 06:51:07;;;;;;;15.15;8.02;;;;;;;18.76;100.00;101958.72;5222289;28;20021;-82
2021/08/12 06:53:37;;;;;;;16.30;7.88;;;;;;;18.96;100.00;101958.94;5222101;28;20131;-82
2021/08/12 06:56:08;;;;;;;16.33;8.40;;;;;;;19.06;100.00;101960.28;5222464;28;20039;-82
2021/08/12 06:58:38;;;;;;;12.68;7.43;;;;;;;18.95;100.00;101951.81;5222678;28;20178;-83
2021/08/12 07:01:09;;;;;;;17.05;7.57;;;;;;;18.87;100.00;101953.59;5221702;28;20470;-82
2021/08/12 07:03:39;;;;;;;14.43;8.43;;;;;;;18.86;100.00;101951.09;5222539;28;20024;-83
2021/08/12 07:06:10;;;;;;;15.35;8.00;;;;;;;18.87;100.00;101948.16;5222144;28;20074;-82
2021/08/12 07:08:41;;;;;;;13.02;8.15;;;;;;;19.05;100.00;101953.16;5222024;28;20028;-82
2021/08/12 07:11:11;;;;;;;13.38;7.75;;;;;;;19.25;100.00;101942.47;5221231;28;20075;-84
2021/08/12 07:13:43;;;;;;;12.43;6.97;;;;;;;19.28;100.00;101949.41;5222203;28;20025;-83
2021/08/12 07:16:14;;;;;;;14.73;7.85;;;;;;;19.39;100.00;101951.56;5221681;28;20033;-83
2021/08/12 07:18:45;;;;;;;13.27;7.53;;;;;;;19.35;100.00;101948.41;5221980;28;20039;-82
2021/08/12 07:21:17;;;;;;;14.32;7.45;;;;;;;19.34;100.00;101951.31;5220694;28;20386;-81
2021/08/12 07:23:48;;;;;;;13.57;7.28;;;;;;;19.40;100.00;101945.91;5220913;28;20430;-83
2021/08/12 07:26:18;;;;;;;15.82;7.65;;;;;;;19.55;100.00;101951.25;5221715;28;20024;-82
2021/08/12 07:28:49;;;;;;;12.02;7.28;;;;;;;19.72;100.00;101957.25;5221682;28;20492;-82
2021/08/12 07:31:19;;;;;;;14.25;7.55;;;;;;;19.84;100.00;101958.41;5214592;28;20351;-82
2021/08/12 07:33:50;;;;;;;14.55;7.35;;;;;;;20.08;100.00;101953.47;5221430;28;20021;-81
2021/08/12 07:36:20;;;;;;;14.80;6.95;;;;;;;20.29;100.00;101949.81;5221103;28;20108;-81
2021/08/12 07:38:51;;;;;;;9.65;5.88;;;;;;;20.57;100.00;101955.16;5221413;28;20052;-83
2021/08/12 07:41:21;;;;;;;9.82;6.35;;;;;;;20.76;100.00;101959.81;5221740;28;20064;-87
2021/08/12 07:43:52;;;;;;;10.02;5.97;;;;;;;20.94;100.00;101962.81;5220947;28;20025;-81
2021/08/12 07:46:22;;;;;;;17.20;6.50;;;;;;;21.15;100.00;101960.94;5224669;28;20402;-83
2021/08/12 07:48:53;;;;;;;10.68;6.25;;;;;;;21.26;100.00;101965.75;5224601;28;20123;-83
2021/08/12 07:51:23;;;;;;;12.25;6.63;;;;;;;21.39;100.00;101968.53;5224536;28;20029;-84
2021/08/12 07:53:55;;;;;;;11.05;6.35;;;;;;;21.58;100.00;101969.53;5224689;28;20392;-85
2021/08/12 07:56:25;;;;;;;10.93;5.53;;;;;;;21.72;100.00;101963.00;5224532;28;20060;-83
2021/08/12 07:58:56;;;;;;;12.23;5.93;;;;;;;21.85;100.00;101969.50;5224818;28;20536;-82
2021/08/12 08:01:26;;;;;;;10.63;5.63;;;;;;;22.15;100.00;101969.88;5205936;28;20532;-81
2021/08/12 08:03:59;;;;;;;11.68;6.03;;;;;;;22.44;100.00;101968.44;5224001;28;20029;-86
2021/08/12 08:06:30;;;;;;;10.52;5.50;;;;;;;22.53;100.00;101964.41;5224293;28;20465;-84
2021/08/12 08:09:00;;;;;;;11.55;5.28;;;;;;;22.51;100.00;101965.72;5224318;28;20357;-85
2021/08/12 08:11:31;;;;;;;7.88;5.38;;;;;;;22.75;100.00;101954.84;5224256;28;20293;-83
2021/08/12 08:14:02;;;;;;;10.98;5.25;;;;;;;22.68;100.00;101972.31;5223734;28;20256;-86
2021/08/12 08:16:33;;;;;;;8.43;5.22;;;;;;;22.81;100.00;101960.47;5223745;28;20288;-84
2021/08/12 08:19:03;;;;;;;11.07;5.47;;;;;;;22.85;100.00;101964.47;5206389;28;20025;-83
2021/08/12 08:21:34;;;;;;;8.32;5.60;;;;;;;22.97;100.00;101970.91;5206108;28;20319;-84
2021/08/12 08:24:05;;;;;;;10.70;5.20;;;;;;;23.07;100.00;101971.25;5224378;28;20410;-84
2021/08/12 08:26:35;;;;;;;10.68;4.30;;;;;;;23.36;100.00;101969.78;5225212;28;20401;-83
2021/08/12 08:29:06;;;;;;;11.50;4.78;;;;;;;23.37;100.00;101974.19;5224478;28;20025;-87
2021/08/12 08:31:36;;;;;;;10.88;5.13;;;;;;;23.32;100.00;101976.75;5217721;28;20486;-86
2021/08/12 08:34:07;;;;;;;12.82;5.47;;;;;;;23.16;100.00;101969.94;5225454;28;20017;-82
2021/08/12 08:36:37;;;;;;;9.57;5.05;;;;;;;23.35;100.00;101976.31;5221120;28;20131;-84
2021/08/12 08:39:09;;;;;;;11.15;4.82;;;;;;;23.59;100.00;101971.03;5184763;28;20056;-86
2021/08/12 08:41:40;;;;;;;12.70;6.43;;;;;;;23.71;100.00;101972.00;5218923;28;20513;-84
2021/08/12 08:44:11;;;;;;;10.02;5.05;;;;;;;23.66;100.00;101961.72;5225656;28;20108;-86
2021/08/12 08:46:43;;;;;;;13.13;5.43;;;;;;;23.51;100.00;101966.69;5225443;28;20048;-85
2021/08/12 08:49:19;;;;;;;8.27;4.60;;;;;;;23.33;100.00;101972.09;5225650;28;20108;-85
2021/08/12 08:51:50;;;;;;;8.63;5.43;;;;;;;23.14;100.00;101974.78;5225511;28;20028;-84
2021/08/12 08:54:21;;;;;;;12.23;5.50;;;;;;;23.10;100.00;101972.72;5225226;28;20025;-85
2021/08/12 08:56:52;;;;;;;12.63;5.00;;;;;;;23.05;100.00;101981.59;5223357;28;20139;-83
2021/08/12 08:59:24;;;;;;;9.02;4.55;;;;;;;22.87;100.00;101976.00;5223341;28;20112;-83
2021/08/12 09:01:55;;;;;;;7.90;5.57;;;;;;;22.84;100.00;101974.56;5223855;28;20029;-83
2021/08/12 09:04:25;;;;;;;14.38;5.75;;;;;;;22.90;100.00;101965.50;5223956;28;20021;-84
2021/08/12 09:06:56;;;;;;;9.80;5.30;;;;;;;23.04;100.00;101970.84;5224560;28;20082;-85
2021/08/12 09:09:26;;;;;;;12.10;5.70;;;;;;;23.06;100.00;101966.84;5206875;28;20021;-84
2021/08/12 09:11:57;;;;;;;9.13;5.65;;;;;;;23.24;100.00;101966.94;5223621;28;20043;-83
2021/08/12 09:14:30;;;;;;;11.60;5.97;;;;;;;23.08;100.00;101969.34;5205740;28;20096;-83
2021/08/12 09:17:26;;;;;;;7.75;4.97;;;;;;;22.85;100.00;101964.47;5204546;28;20025;-86
2021/08/12 09:20:01;;;;;;;11.85;5.47;;;;;;;22.75;100.00;101962.22;5205718;28;20381;-87
2021/08/12 09:22:51;;;;;;;12.45;5.72;;;;;;;22.83;100.00;101961.91;5203332;28;20028;-85
2021/08/12 09:25:34;;;;;;;12.63;5.57;;;;;;;23.03;100.00;101964.53;5206033;28;20043;-85
2021/08/12 09:28:10;;;;;;;9.63;5.40;;;;;;;23.16;100.00;101958.16;5205880;28;20450;-84
2021/08/12 09:30:44;;;;;;;7.28;5.07;;;;;;;23.80;100.00;101954.22;5205194;28;20032;-87
2021/08/12 09:33:17;;;;;;;11.55;5.43;;;;;;;23.82;100.00;101954.81;5205015;28;20064;-83
2021/08/12 09:35:47;;;;;;;8.63;5.72;;;;;;;24.03;100.00;101954.34;5222963;28;20056;-84
2021/08/12 09:38:17;;;;;;;9.13;5.90;;;;;;;23.85;100.00;101954.34;5223521;28;20021;-83
2021/08/12 09:40:54;;;;;;;9.52;5.03;;;;;;;23.86;100.00;101955.19;5223584;28;20029;-84
2021/08/12 09:43:30;;;;;;;15.82;5.65;;;;;;;23.55;100.00;101954.22;5223906;28;20115;-82
2021/08/12 09:46:01;;;;;;;9.40;5.40;;;;;;;23.26;100.00;101950.28;5224656;28;20032;-83
2021/08/12 09:48:31;;;;;;;11.80;5.22;;;;;;;22.95;100.00;101949.25;5222387;28;20433;-84
2021/08/12 09:51:09;;;;;;;9.25;4.95;;;;;;;22.60;100.00;101950.72;5222451;28;20040;-85
2021/08/12 09:53:40;;;;;;;8.10;4.90;;;;;;;22.55;100.00;101943.19;5223498;28;20469;-83
2021/08/12 09:56:12;;;;;;;12.15;5.45;;;;;;;22.41;100.00;101949.78;5222850;28;20040;-84
2021/08/12 09:58:42;;;;;;;9.40;6.03;;;;;;;22.28;100.00;101945.19;5204645;28;20032;-82
2021/08/12 10:01:19;;;;;;;18.55;5.20;;;;;;;22.27;100.00;101950.88;5204156;28;20094;-86
2021/08/12 10:03:51;;;;;;;15.43;6.00;;;;;;;22.39;100.00;101941.78;5211478;28;20028;-83
2021/08/12 10:06:25;;;;;;;14.15;5.68;;;;;;;22.43;100.00;101944.91;5221292;28;20498;-82
2021/08/12 10:08:55;;;;;;;12.93;5.57;;;;;;;22.70;100.00;101929.19;5221840;28;20035;-83
2021/08/12 10:11:28;;;;;;;9.05;5.38;;;;;;;23.11;100.00;101930.59;5221999;28;20484;-83
2021/08/12 10:14:03;;;;;;;11.30;5.75;;;;;;;23.57;100.00;101940.28;5204648;28;20025;-84
2021/08/12 10:16:36;;;;;;;10.30;5.97;;;;;;;23.59;100.00;101935.41;5222898;28;20793;-83
2021/08/12 10:19:11;;;;;;;11.52;5.53;;;;;;;24.02;100.00;101938.97;5223802;28;20025;-85
2021/08/12 10:21:42;;;;;;;;;;;;;;;24.21;100.00;101937.06;5204904;28;20025;-86
2021/08/12 10:24:14;;;;;;;10.85;5.75;;;;;;;24.43;100.00;101931.94;5222003;28;20242;-86
2021/08/12 10:26:49;;;;;;;11.73;5.78;;;;;;;24.20;100.00;101934.56;5205828;28;20082;-86
2021/08/12 10:29:23;;;;;;;15.15;6.40;;;;;;;24.16;100.00;101933.34;5223306;28;20028;-86
2021/08/12 10:31:55;;;;;;;9.05;5.43;;;;;;;24.27;100.00;101929.81;5215412;28;20120;-84
2021/08/12 10:34:26;;;;;;;14.25;5.90;;;;;;;24.23;100.00;101945.88;5222520;28;20025;-84
2021/08/12 10:36:56;;;;;;;14.65;6.28;;;;;;;24.15;100.00;101950.84;5223475;28;20493;-85
2021/08/12 10:39:27;;;;;;;9.23;5.57;;;;;;;24.25;100.00;101942.91;5222069;28;20025;-84
2021/08/12 10:41:58;;;;;;;10.07;5.20;;;;;;;24.57;100.00;101942.72;5221435;28;20308;-84
2021/08/12 10:44:28;;;;;;;9.35;5.25;;;;;;;24.56;100.00;101952.84;5221262;28;20029;-85
2021/08/12 10:46:59;;;;;;;14.10;5.97;;;;;;;24.58;100.00;101944.38;5221186;28;20028;-84
2021/08/12 10:49:32;;;;;;;10.88;5.70;;;;;;;24.90;100.00;101944.94;5221005;28;20345;-85
2021/08/12 10:52:03;;;;;;;9.07;4.78;;;;;;;25.09;100.00;101934.75;5202702;28;20021;-84
2021/08/12 10:54:41;;;;;;;10.73;5.38;;;;;;;24.96;100.00;101941.28;5220349;28;20502;-84
2021/08/12 10:57:13;;;;;;;14.25;4.82;;;;;;;25.19;100.00;101943.25;5207530;28;20033;-84
2021/08/12 10:59:44;;;;;;;8.35;5.18;;;;;;;25.41;100.00;101944.34;5220642;28;20116;-85
2021/08/12 11:02:26;;;;;;;17.08;5.45;;;;;;;25.26;100.00;101946.72;5220065;28;20024;-83
2021/08/12 11:04:59;;;;;;;10.52;5.28;;;;;;;25.12;100.00;101943.38;5220320;28;20032;-84
2021/08/12 11:07:51;;;;;;;12.13;5.30;;;;;;;25.26;100.00;101941.25;5220392;28;20028;-84
2021/08/12 11:10:22;;;;;;;9.85;5.03;;;;;;;25.22;100.00;101942.78;5220093;28;20037;-84
2021/08/12 11:12:52;;;;;;;9.30;4.80;;;;;;;25.23;100.00;101938.97;5219679;28;20024;-85
2021/08/12 11:15:38;;;;;;;11.20;5.15;;;;;;;25.69;100.00;101940.03;5220112;28;20493;-86
2021/08/12 11:18:11;;;;;;;13.10;5.30;;;;;;;25.95;100.00;101942.28;5220157;28;20494;-86
2021/08/12 11:20:44;;;;;;;8.77;4.88;;;;;;;26.09;100.00;101938.19;5219727;28;20021;-84
2021/08/12 11:23:18;;;;;;;7.70;4.13;;;;;;;26.50;100.00;101950.00;5219969;28;20029;-86
2021/08/12 11:25:58;;;;;;;8.40;4.97;;;;;;;26.56;100.00;101950.97;5219704;28;20567;-84
2021/08/12 11:28:38;;;;;;;8.88;4.60;;;;;;;26.81;100.00;101943.19;5220324;28;20037;-85